createdAt,value
2023-06-15T00:01:06.448Z,20.70
2023-06-15T00:03:33.952Z,20.70
2023-06-15T00:06:01.091Z,20.70
2023-06-15T00:08:28.236Z,20.60
2023-06-15T00:10:55.337Z,20.60
2023-06-15T00:13:22.290Z,20.60
2023-06-15T00:15:49.840Z,20.50
2023-06-15T00:18:18.693Z,20.50
2023-06-15T00:20:46.587Z,20.50
2023-06-15T00:23:16.267Z,20.40
2023-06-15T00:25:43.202Z,20.40
2023-06-15T00:28:11.031Z,20.30
2023-06-15T00:30:37.946Z,20.30
2023-06-15T00:33:04.969Z,20.30
2023-06-15T00:35:32.029Z,20.20
2023-06-15T00:37:59.113Z,20.20
2023-06-15T00:40:26.165Z,20.20
2023-06-15T00:42:53.361Z,20.10
2023-06-15T00:45:20.653Z,20.10
2023-06-15T00:47:48.503Z,20.00
2023-06-15T00:50:20.767Z,20.00
2023-06-15T00:52:50.441Z,20.00
2023-06-15T00:55:18.575Z,20.00
2023-06-15T00:57:50.534Z,19.90
2023-06-15T01:00:19.667Z,19.90
2023-06-15T01:02:50.150Z,19.80
2023-06-15T01:05:19.094Z,19.80
2023-06-15T01:07:48.479Z,19.70
2023-06-15T01:10:24.336Z,19.70
2023-06-15T01:12:55.430Z,19.60
2023-06-15T01:15:25.505Z,19.60
2023-06-15T01:17:59.365Z,19.60
2023-06-15T01:20:44.279Z,19.50
2023-06-15T01:23:34.571Z,19.50
2023-06-15T01:26:07.168Z,19.50
2023-06-15T01:28:46.519Z,19.40
2023-06-15T01:31:14.454Z,19.40
2023-06-15T01:33:51.500Z,19.40
2023-06-15T01:36:21.085Z,19.30
2023-06-15T01:38:54.268Z,19.30
2023-06-15T01:41:24.327Z,19.30
2023-06-15T01:43:52.903Z,19.20
2023-06-15T01:46:22.412Z,19.20
2023-06-15T01:48:50.492Z,19.20
2023-06-15T01:51:18.498Z,19.20
2023-06-15T01:53:46.843Z,19.20
2023-06-15T01:56:15.612Z,19.20
2023-06-15T01:58:42.695Z,19.20
2023-06-15T02:01:09.713Z,19.10
2023-06-15T02:03:36.738Z,19.10
2023-06-15T02:06:03.861Z,19.10
2023-06-15T02:08:31.130Z,19.10
2023-06-15T02:10:58.116Z,19.10
2023-06-15T02:13:25.081Z,19.10
2023-06-15T02:15:52.433Z,19.00
2023-06-15T02:18:22.026Z,19.00
2023-06-15T02:20:51.268Z,18.90
2023-06-15T02:23:18.857Z,19.00
2023-06-15T02:25:45.824Z,19.00
2023-06-15T02:28:12.798Z,18.90
2023-06-15T02:30:39.944Z,18.90
2023-06-15T02:33:09.276Z,18.90
2023-06-15T02:35:36.735Z,18.90
2023-06-15T02:38:03.694Z,18.80
2023-06-15T02:40:32.094Z,18.80
2023-06-15T02:42:59.024Z,18.80
2023-06-15T02:45:26.220Z,18.80
2023-06-15T02:47:53.257Z,18.80
2023-06-15T02:50:20.957Z,18.70
2023-06-15T02:52:48.272Z,18.70
2023-06-15T02:55:15.817Z,18.70
2023-06-15T02:57:43.589Z,18.60
2023-06-15T03:00:13.987Z,18.60
2023-06-15T03:02:44.288Z,18.60
2023-06-15T03:05:12.578Z,18.50
2023-06-15T03:07:41.749Z,18.50
2023-06-15T03:10:09.403Z,18.50
2023-06-15T03:12:36.592Z,18.40
2023-06-15T03:15:04.293Z,18.40
2023-06-15T03:17:33.785Z,18.40
2023-06-15T03:20:01.827Z,18.30
2023-06-15T03:22:28.986Z,18.30
2023-06-15T03:24:56.434Z,18.30
2023-06-15T03:27:25.069Z,18.30
2023-06-15T03:29:52.866Z,18.20
2023-06-15T03:32:20.021Z,18.20
2023-06-15T03:34:47.813Z,18.20
2023-06-15T03:37:15.187Z,18.20
2023-06-15T03:39:42.125Z,18.20
2023-06-15T03:42:09.384Z,18.20
2023-06-15T03:44:36.669Z,18.20
2023-06-15T03:47:04.529Z,18.20
2023-06-15T03:49:31.485Z,18.20
2023-06-15T03:51:58.508Z,18.20
2023-06-15T03:54:25.521Z,18.20
2023-06-15T03:56:55.599Z,18.20
2023-06-15T03:59:22.509Z,18.20
2023-06-15T04:01:49.560Z,18.10
2023-06-15T04:04:17.096Z,18.20
2023-06-15T04:06:47.938Z,18.10
2023-06-15T04:09:18.283Z,18.20
2023-06-15T04:11:45.251Z,18.20
2023-06-15T04:14:13.465Z,18.20
2023-06-15T04:16:40.464Z,18.20
2023-06-15T04:19:08.588Z,18.20
2023-06-15T04:21:36.016Z,18.20
2023-06-15T04:24:03.243Z,18.20
2023-06-15T04:26:30.371Z,18.20
2023-06-15T04:29:01.341Z,18.20
2023-06-15T04:31:32.342Z,18.30
2023-06-15T04:34:00.517Z,18.20
2023-06-15T04:36:34.689Z,18.20
2023-06-15T04:39:02.902Z,18.20
2023-06-15T04:41:31.327Z,18.20
2023-06-15T04:43:59.556Z,18.20
2023-06-15T04:46:26.502Z,18.20
2023-06-15T04:48:53.816Z,18.20
2023-06-15T04:51:21.045Z,18.20
2023-06-15T04:53:48.217Z,18.30
2023-06-15T04:56:15.309Z,18.30
2023-06-15T04:58:44.189Z,18.30
2023-06-15T05:01:11.162Z,18.30
2023-06-15T05:03:38.231Z,18.30
2023-06-15T05:06:06.237Z,18.40
2023-06-15T05:08:38.990Z,18.40
2023-06-15T05:11:06.380Z,18.40
2023-06-15T05:13:33.502Z,18.40
2023-06-15T05:16:00.501Z,18.50
2023-06-15T05:18:27.987Z,18.50
2023-06-15T05:20:55.971Z,18.50
2023-06-15T05:23:25.653Z,18.50
2023-06-15T05:25:52.904Z,18.60
2023-06-15T05:28:21.815Z,18.60
2023-06-15T05:30:48.891Z,18.70
2023-06-15T05:33:15.983Z,18.70
2023-06-15T05:35:42.976Z,18.80
2023-06-15T05:38:10.498Z,18.80
2023-06-15T05:40:40.721Z,18.90
2023-06-15T05:43:08.763Z,18.90
2023-06-15T05:45:38.919Z,19.00
2023-06-15T05:48:08.240Z,19.00
2023-06-15T05:50:41.233Z,19.10
2023-06-15T05:53:08.376Z,19.10
2023-06-15T05:55:35.646Z,19.20
2023-06-15T05:58:04.204Z,19.20
2023-06-15T06:00:32.991Z,19.30
2023-06-15T06:03:00.452Z,19.30
2023-06-15T06:05:27.478Z,19.40
2023-06-15T06:07:54.534Z,19.50
2023-06-15T06:10:21.498Z,19.50
2023-06-15T06:12:48.486Z,19.80
2023-06-15T06:15:19.103Z,20.20
2023-06-15T06:18:03.917Z,20.90
2023-06-15T06:20:33.777Z,21.70
2023-06-15T06:23:00.744Z,22.70
2023-06-15T06:25:29.112Z,23.50
2023-06-15T06:27:56.419Z,24.20
2023-06-15T06:30:23.491Z,24.80
2023-06-15T06:32:53.979Z,25.50
2023-06-15T06:35:21.226Z,26.10
2023-06-15T06:37:49.078Z,26.70
2023-06-15T06:40:16.031Z,27.00
2023-06-15T06:42:43.819Z,27.40
2023-06-15T06:45:12.321Z,27.80
2023-06-15T06:47:39.352Z,28.30
2023-06-15T06:50:07.663Z,28.40
2023-06-15T06:52:34.650Z,28.70
2023-06-15T06:55:01.721Z,28.90
2023-06-15T06:57:29.375Z,29.10
2023-06-15T06:59:56.939Z,29.40
2023-06-15T07:02:24.129Z,29.70
2023-06-15T07:04:51.605Z,29.80
2023-06-15T07:07:18.537Z,30.10
2023-06-15T07:09:45.590Z,30.10
2023-06-15T07:12:12.742Z,30.30
2023-06-15T07:14:41.164Z,30.40
2023-06-15T07:17:09.519Z,30.50
2023-06-15T07:19:36.638Z,30.60
2023-06-15T07:22:03.577Z,30.90
2023-06-15T07:24:30.697Z,31.30
2023-06-15T07:26:58.833Z,31.50
2023-06-15T07:29:26.514Z,31.60
2023-06-15T07:31:53.819Z,31.80
2023-06-15T07:34:20.923Z,31.80
2023-06-15T07:36:47.965Z,32.20
2023-06-15T07:39:14.977Z,32.40
2023-06-15T07:41:41.893Z,32.50
2023-06-15T07:44:13.717Z,32.70
2023-06-15T07:46:43.040Z,32.90
2023-06-15T07:49:14.005Z,33.20
2023-06-15T07:51:52.558Z,33.20
2023-06-15T07:54:27.430Z,33.30
2023-06-15T07:56:54.385Z,33.30
2023-06-15T07:59:21.452Z,33.40
2023-06-15T08:01:51.175Z,33.60
2023-06-15T08:04:18.543Z,33.80
2023-06-15T08:06:45.682Z,33.70
2023-06-15T08:09:13.099Z,33.70
2023-06-15T08:11:41.150Z,33.70
2023-06-15T08:14:09.503Z,33.70
2023-06-15T08:16:37.109Z,33.90
2023-06-15T08:19:04.123Z,34.00
2023-06-15T08:21:31.410Z,34.00
2023-06-15T08:23:58.406Z,34.10
2023-06-15T08:26:25.402Z,34.40
2023-06-15T08:28:55.248Z,34.60
2023-06-15T08:31:25.263Z,34.80
2023-06-15T08:33:53.433Z,34.90
2023-06-15T08:36:20.369Z,34.80
2023-06-15T08:38:47.504Z,34.90
2023-06-15T08:41:15.197Z,34.90
2023-06-15T08:43:44.915Z,35.10
2023-06-15T08:46:12.577Z,35.00
2023-06-15T08:48:41.158Z,35.10
2023-06-15T08:51:13.666Z,35.00
2023-06-15T08:53:48.938Z,35.10
2023-06-15T08:56:16.097Z,35.10
2023-06-15T08:58:55.026Z,35.30
2023-06-15T09:01:24.186Z,35.00
2023-06-15T09:03:54.168Z,35.10
2023-06-15T09:06:22.745Z,35.20
2023-06-15T09:08:50.337Z,35.00
2023-06-15T09:11:18.635Z,34.80
2023-06-15T09:13:46.537Z,34.70
2023-06-15T09:16:14.086Z,34.50
2023-06-15T09:18:50.472Z,34.50
2023-06-15T09:21:19.791Z,34.30
2023-06-15T09:23:48.101Z,34.00
2023-06-15T09:26:27.364Z,34.00
2023-06-15T09:28:59.434Z,34.00
2023-06-15T09:31:35.542Z,33.90
2023-06-15T09:34:13.935Z,33.80
2023-06-15T09:36:41.734Z,33.70
2023-06-15T09:39:11.147Z,33.50
2023-06-15T09:41:54.301Z,33.30
2023-06-15T09:44:23.502Z,33.30
2023-06-15T09:47:00.593Z,33.30
2023-06-15T09:49:29.418Z,33.30
2023-06-15T09:51:57.311Z,33.10
2023-06-15T09:54:29.333Z,32.80
2023-06-15T09:56:57.231Z,32.80
2023-06-15T09:59:24.969Z,32.80
2023-06-15T10:01:56.464Z,32.60
2023-06-15T10:04:31.267Z,32.50
2023-06-15T10:07:12.746Z,32.40
2023-06-15T10:09:50.677Z,32.30
2023-06-15T10:12:24.263Z,32.30
2023-06-15T10:15:12.361Z,32.20
2023-06-15T10:17:43.054Z,32.30
2023-06-15T10:20:19.687Z,32.30
2023-06-15T10:23:08.676Z,32.20
2023-06-15T10:25:36.731Z,32.10
2023-06-15T10:28:10.867Z,32.10
2023-06-15T10:31:01.996Z,32.00
2023-06-15T10:33:33.818Z,32.00
2023-06-15T10:36:10.365Z,32.00
2023-06-15T10:38:50.644Z,31.90
2023-06-15T10:41:17.939Z,31.90
2023-06-15T10:44:06.822Z,32.10
2023-06-15T10:46:37.106Z,32.10
2023-06-15T10:49:06.620Z,32.20
2023-06-15T10:51:43.131Z,32.40
2023-06-15T10:54:27.953Z,32.30
2023-06-15T10:56:59.687Z,32.30
2023-06-15T10:59:56.163Z,32.30
2023-06-15T11:02:29.772Z,32.40
2023-06-15T11:05:05.288Z,32.50
2023-06-15T11:07:42.741Z,32.50
2023-06-15T11:10:16.318Z,32.40
2023-06-15T11:12:45.827Z,32.50
2023-06-15T11:15:17.225Z,32.40
2023-06-15T11:17:59.703Z,32.30
2023-06-15T11:20:43.455Z,32.20
2023-06-15T11:23:20.560Z,32.20
2023-06-15T11:25:50.095Z,32.20
2023-06-15T11:28:35.936Z,32.30
2023-06-15T11:31:08.291Z,32.20
2023-06-15T11:33:38.898Z,32.20
2023-06-15T11:36:11.846Z,32.30
2023-06-15T11:38:39.423Z,32.30
2023-06-15T11:41:25.198Z,32.30
2023-06-15T11:43:53.409Z,32.30
2023-06-15T11:46:23.036Z,32.50
2023-06-15T11:48:56.274Z,32.60
2023-06-15T11:51:23.877Z,32.60
2023-06-15T11:53:54.873Z,32.60
2023-06-15T11:56:23.205Z,32.30
2023-06-15T11:58:51.455Z,32.10
2023-06-15T12:01:21.977Z,31.90
2023-06-15T12:06:22.763Z,31.70
2023-06-15T12:08:55.958Z,31.60
2023-06-15T12:11:24.690Z,31.50
2023-06-15T12:13:52.227Z,31.50
2023-06-15T12:16:19.960Z,31.60
2023-06-15T12:18:59.869Z,31.60
2023-06-15T12:21:33.686Z,31.80
2023-06-15T12:24:01.991Z,31.90
2023-06-15T12:26:34.165Z,32.00
2023-06-15T12:29:15.778Z,32.10
2023-06-15T12:31:42.727Z,32.10
2023-06-15T12:34:14.045Z,32.30
2023-06-15T12:36:41.750Z,32.50
2023-06-15T12:39:13.614Z,32.60
2023-06-15T12:41:43.147Z,32.60
2023-06-15T12:44:11.117Z,32.70
2023-06-15T12:46:40.834Z,32.80
2023-06-15T12:49:09.662Z,32.80
2023-06-15T12:51:37.492Z,32.80
2023-06-15T12:54:05.388Z,32.80
2023-06-15T12:56:37.751Z,33.00
2023-06-15T12:59:05.024Z,33.10
2023-06-15T13:01:33.830Z,33.10
2023-06-15T13:04:01.532Z,33.20
2023-06-15T13:06:28.921Z,33.30
2023-06-15T13:08:57.294Z,33.40
2023-06-15T13:11:24.271Z,33.50
2023-06-15T13:13:51.269Z,33.60
2023-06-15T13:16:18.254Z,33.50
2023-06-15T13:18:45.985Z,33.40
2023-06-15T13:21:13.610Z,33.30
2023-06-15T13:23:40.553Z,33.20
2023-06-15T13:26:07.497Z,33.00
2023-06-15T13:28:35.317Z,32.80
2023-06-15T13:31:02.545Z,32.90
2023-06-15T13:33:29.503Z,32.80
2023-06-15T13:35:58.449Z,32.90
2023-06-15T13:38:25.501Z,32.80
2023-06-15T13:40:52.463Z,32.80
2023-06-15T13:43:20.916Z,32.80
2023-06-15T13:45:47.843Z,32.80
2023-06-15T13:48:14.814Z,32.90
2023-06-15T13:50:42.091Z,32.90
2023-06-15T13:53:09.344Z,33.00
2023-06-15T13:55:36.308Z,33.00
2023-06-15T13:58:03.639Z,33.00
2023-06-15T14:00:30.938Z,33.10
2023-06-15T14:02:58.376Z,33.10
2023-06-15T14:05:26.820Z,33.10
2023-06-15T14:07:53.883Z,33.10
2023-06-15T14:10:21.213Z,33.10
2023-06-15T14:12:49.784Z,33.10
2023-06-15T14:15:16.870Z,32.90
2023-06-15T14:17:44.067Z,32.80
2023-06-15T14:20:11.846Z,32.60
2023-06-15T14:22:38.843Z,32.60
2023-06-15T14:25:06.885Z,32.60
2023-06-15T14:27:33.897Z,32.60
2023-06-15T14:30:00.902Z,32.60
2023-06-15T14:32:28.402Z,32.60
2023-06-15T14:34:55.529Z,32.60
2023-06-15T14:37:22.730Z,32.70
2023-06-15T14:39:49.728Z,32.80
2023-06-15T14:42:20.772Z,32.90
2023-06-15T14:44:50.219Z,33.00
2023-06-15T14:47:18.374Z,33.10
2023-06-15T14:49:45.393Z,33.20
2023-06-15T14:52:12.624Z,33.10
2023-06-15T14:54:42.435Z,33.10
2023-06-15T14:57:12.305Z,33.00
2023-06-15T14:59:42.337Z,33.10
2023-06-15T15:02:15.984Z,33.20
2023-06-15T15:04:47.493Z,33.10
2023-06-15T15:07:14.597Z,33.20
2023-06-15T15:09:41.514Z,33.30
2023-06-15T15:12:10.076Z,33.20
2023-06-15T15:14:37.461Z,33.30
2023-06-15T15:17:04.948Z,33.30
2023-06-15T15:19:34.947Z,33.20
2023-06-15T15:22:03.801Z,33.30
2023-06-15T15:24:33.058Z,33.30
2023-06-15T15:27:00.358Z,33.30
2023-06-15T15:29:28.415Z,33.30
2023-06-15T15:31:55.437Z,33.30
2023-06-15T15:34:22.608Z,33.30
2023-06-15T15:36:49.866Z,33.30
2023-06-15T15:39:18.158Z,33.20
2023-06-15T15:41:46.947Z,33.20
2023-06-15T15:44:13.897Z,33.20
2023-06-15T15:46:41.116Z,33.10
2023-06-15T15:49:08.437Z,33.00
2023-06-15T15:51:36.589Z,32.90
2023-06-15T15:54:03.756Z,32.80
2023-06-15T15:56:30.813Z,32.70
2023-06-15T15:58:57.735Z,32.80
2023-06-15T16:01:28.381Z,32.80
2023-06-15T16:03:55.718Z,32.80
2023-06-15T16:06:22.869Z,32.70
2023-06-15T16:08:49.782Z,32.60
2023-06-15T16:11:16.704Z,32.30
2023-06-15T16:13:44.319Z,32.30
2023-06-15T16:16:27.548Z,32.30
2023-06-15T16:18:57.807Z,32.20
2023-06-15T16:21:25.939Z,32.20
2023-06-15T16:23:53.180Z,32.20
2023-06-15T16:26:20.300Z,32.10
2023-06-15T16:28:48.213Z,32.10
2023-06-15T16:31:17.719Z,32.10
2023-06-15T16:33:45.620Z,32.10
2023-06-15T16:36:12.552Z,32.10
2023-06-15T16:38:58.458Z,32.10
2023-06-15T16:41:25.637Z,32.10
2023-06-15T16:43:54.787Z,32.00
2023-06-15T16:46:22.090Z,31.90
2023-06-15T16:48:49.464Z,31.70
2023-06-15T16:51:16.810Z,31.70
2023-06-15T16:53:43.923Z,31.70
2023-06-15T16:56:11.225Z,31.70
2023-06-15T16:58:38.195Z,31.60
2023-06-15T17:01:05.574Z,31.50
2023-06-15T17:03:34.835Z,31.50
2023-06-15T17:06:03.548Z,31.40
2023-06-15T17:08:30.488Z,31.30
2023-06-15T17:10:57.743Z,31.30
2023-06-15T17:13:24.655Z,31.30
2023-06-15T17:15:51.801Z,31.30
2023-06-15T17:18:19.378Z,31.20
2023-06-15T17:20:47.481Z,31.20
2023-06-15T17:23:14.410Z,31.10
2023-06-15T17:25:41.399Z,31.00
2023-06-15T17:28:08.327Z,31.10
2023-06-15T17:30:35.504Z,31.00
2023-06-15T17:33:03.709Z,31.00
2023-06-15T17:35:30.687Z,31.00
2023-06-15T17:37:57.838Z,30.90
2023-06-15T17:40:29.780Z,30.80
2023-06-15T17:42:56.967Z,30.70
2023-06-15T17:45:23.965Z,30.70
2023-06-15T17:47:51.284Z,30.50
2023-06-15T17:50:18.621Z,30.50
2023-06-15T17:52:45.668Z,30.50
2023-06-15T17:55:12.661Z,30.40
2023-06-15T17:57:40.650Z,30.40
2023-06-15T18:00:08.991Z,30.30
2023-06-15T18:02:39.684Z,30.20
2023-06-15T18:05:07.731Z,30.20
2023-06-15T18:07:34.732Z,30.10
2023-06-15T18:10:01.743Z,30.10
2023-06-15T18:12:30.400Z,30.00
2023-06-15T18:14:58.386Z,29.90
2023-06-15T18:17:25.449Z,29.80
2023-06-15T18:19:52.393Z,29.70
2023-06-15T18:22:19.348Z,29.70
2023-06-15T18:24:46.307Z,29.60
2023-06-15T18:27:13.245Z,29.50
2023-06-15T18:29:40.185Z,29.40
2023-06-15T18:32:07.649Z,29.30
2023-06-15T18:34:34.587Z,29.20
2023-06-15T18:37:01.774Z,29.10
2023-06-15T18:39:28.892Z,28.90
2023-06-15T18:41:55.888Z,28.80
2023-06-15T18:44:22.791Z,28.70
2023-06-15T18:46:50.296Z,28.60
2023-06-15T18:49:17.439Z,28.60
2023-06-15T18:51:44.749Z,28.40
2023-06-15T18:54:12.096Z,28.30
2023-06-15T18:56:39.026Z,28.20
2023-06-15T18:59:07.213Z,28.10
2023-06-15T19:01:34.209Z,28.00
2023-06-15T19:04:01.151Z,27.80
2023-06-15T19:06:28.138Z,27.70
2023-06-15T19:08:55.851Z,27.60
2023-06-15T19:11:25.691Z,27.50
2023-06-15T19:13:52.946Z,27.40
2023-06-15T19:16:20.056Z,27.40
2023-06-15T19:18:47.066Z,27.30
2023-06-15T19:21:14.114Z,27.20
2023-06-15T19:24:26.373Z,27.10
2023-06-15T19:26:57.240Z,27.00
2023-06-15T19:29:24.228Z,26.90
2023-06-15T19:31:53.089Z,26.80
2023-06-15T19:34:22.199Z,26.70
2023-06-15T19:36:55.773Z,26.60
2023-06-15T19:39:24.286Z,26.60
2023-06-15T19:41:52.331Z,26.50
2023-06-15T19:44:19.870Z,26.50
2023-06-15T19:46:47.242Z,26.40
2023-06-15T19:49:14.388Z,26.30
2023-06-15T19:51:43.194Z,26.20
2023-06-15T19:54:10.479Z,26.10
2023-06-15T19:56:42.146Z,26.00
2023-06-15T19:59:09.571Z,26.00
2023-06-15T20:01:36.601Z,25.90
2023-06-15T20:04:04.965Z,25.90
2023-06-15T20:06:32.218Z,25.80
2023-06-15T20:09:00.474Z,25.70
2023-06-15T20:11:29.701Z,25.70
2023-06-15T20:13:56.765Z,25.60
2023-06-15T20:16:23.758Z,25.50
2023-06-15T20:18:53.347Z,25.50
2023-06-15T20:21:21.871Z,25.40
2023-06-15T20:23:49.040Z,25.40
2023-06-15T20:26:17.971Z,25.30
2023-06-15T20:28:50.207Z,25.20
2023-06-15T20:31:23.650Z,25.20
2023-06-15T20:34:45.927Z,25.10
2023-06-15T20:37:15.246Z,25.00
2023-06-15T20:39:46.152Z,24.90
2023-06-15T20:42:15.855Z,24.90
2023-06-15T20:44:42.760Z,24.80
2023-06-15T20:47:09.786Z,24.70
2023-06-15T20:49:36.758Z,24.70
2023-06-15T20:52:04.161Z,24.60
2023-06-15T20:54:31.207Z,24.50
2023-06-15T20:56:58.160Z,24.40
2023-06-15T20:59:25.271Z,24.30
2023-06-15T21:01:52.219Z,24.30
2023-06-15T21:04:19.865Z,24.20
2023-06-15T21:06:46.890Z,24.10
2023-06-15T21:09:15.253Z,24.00
2023-06-15T21:11:42.163Z,24.00
2023-06-15T21:14:09.117Z,23.90
2023-06-15T21:16:38.152Z,23.90
2023-06-15T21:19:05.349Z,23.80
2023-06-15T21:21:32.366Z,23.80
2023-06-15T21:23:59.357Z,23.70
2023-06-15T21:26:26.653Z,23.70
2023-06-15T21:28:54.852Z,23.70
2023-06-15T21:31:21.747Z,23.60
2023-06-15T21:33:48.695Z,23.60
2023-06-15T21:36:16.055Z,23.50
2023-06-15T21:38:43.016Z,23.40
2023-06-15T21:41:09.913Z,23.40
2023-06-15T21:43:39.223Z,23.30
2023-06-15T21:46:07.815Z,23.30
2023-06-15T21:48:34.812Z,23.30
2023-06-15T21:51:01.840Z,23.20
2023-06-15T21:53:28.828Z,23.20
2023-06-15T21:55:55.790Z,23.10
2023-06-15T21:58:23.780Z,23.10
2023-06-15T22:00:51.788Z,23.00
2023-06-15T22:03:18.816Z,23.00
2023-06-15T22:05:46.593Z,23.00
2023-06-15T22:08:14.783Z,23.00
2023-06-15T22:10:41.752Z,23.00
2023-06-15T22:13:08.792Z,23.00
2023-06-15T22:15:35.786Z,22.90
2023-06-15T22:18:02.852Z,22.80
2023-06-15T22:20:31.109Z,22.80
2023-06-15T22:22:58.069Z,22.70
2023-06-15T22:25:27.470Z,22.70
2023-06-15T22:27:55.291Z,22.60
2023-06-15T22:30:22.201Z,22.60
2023-06-15T22:32:55.451Z,22.60
2023-06-15T22:35:22.604Z,22.50
2023-06-15T22:37:50.987Z,22.50
2023-06-15T22:40:18.447Z,22.50
2023-06-15T22:42:46.179Z,22.40
2023-06-15T22:45:13.314Z,22.30
2023-06-15T22:47:42.908Z,22.20
2023-06-15T22:50:10.624Z,22.20
2023-06-15T22:52:38.440Z,22.20
2023-06-15T22:55:06.582Z,22.20
2023-06-15T22:57:33.547Z,22.10
2023-06-15T23:00:00.633Z,22.10
2023-06-15T23:02:27.658Z,22.10
2023-06-15T23:04:56.093Z,22.00
2023-06-15T23:07:24.772Z,22.00
2023-06-15T23:09:51.772Z,21.90
2023-06-15T23:12:20.013Z,21.90
2023-06-15T23:14:53.807Z,21.90
2023-06-15T23:17:22.127Z,21.80
2023-06-15T23:19:50.477Z,21.70
2023-06-15T23:22:23.700Z,21.70
2023-06-15T23:24:55.073Z,21.60
2023-06-15T23:27:25.043Z,21.60
2023-06-15T23:29:51.963Z,21.50
2023-06-15T23:32:19.064Z,21.50
2023-06-15T23:34:46.534Z,21.40
2023-06-15T23:37:13.439Z,21.40
2023-06-15T23:39:40.709Z,21.30
2023-06-15T23:42:08.602Z,21.30
2023-06-15T23:44:35.579Z,21.20
2023-06-15T23:47:02.709Z,21.20
2023-06-15T23:49:30.382Z,21.20
2023-06-15T23:51:57.309Z,21.10
2023-06-15T23:54:24.227Z,21.10
2023-06-15T23:56:51.121Z,21.00
2023-06-15T23:59:18.132Z,21.00
